Todd G — WRC6671 — position and weather

sailwx.info

Track history (hours):
 
Tides and Currents Weather Stations Pressure Air Temp Water Temp Dewpoint Dewpoint Depression Visibility Wind Speed Wind Dir Waves Ship Positions

Todd G

Owner: Harbor Towing & Fleeting, Inc., Metairie, LA. More information available from US FCC via Universal Licensing System and Coast Guard Vessel Documentation Center.

Last reported at 2015-Jul-04 01:15 UTC. Time now 2015-Jul-04 06:58 UTC.
Position N 29°56' W 090°00'.

Length 16 m.

Type: Towing. MMSI: 366988470.

Date/timePositionNaut miles runAvg speedWind from/ knotsBaromVisibWave heightAir tempDewpointWater temp
2015-Jul-04 01:15N 29°56' W 090°00'0 0.0
2015-Jul-03 23:23N 29°56' W 090°00'0 0.0
2015-Jul-03 22:26N 29°56' W 090°00'2 1.8
2015-Jul-03 21:21N 29°58' W 090°02'3 3.2
2015-Jul-03 20:27N 29°60' W 089°59'1 0.7
2015-Jul-03 18:21N 30°00' W 089°58'3 2.9
2015-Jul-03 17:23N 29°60' W 090°01'7 5.5
2015-Jul-03 16:11N 30°01' W 089°53'2 3.1
2015-Jul-03 15:25N 30°00' W 089°56'5 2.6
2015-Jul-03 13:19N 29°58' W 090°02'1 1.3
2015-Jul-03 12:29N 29°57' W 090°01'1 0.9
2015-Jul-03 11:18N 29°56' W 090°00'0 0.0
2015-Jul-03 10:20N 29°56' W 090°00'0 0.0
2015-Jul-03 09:33N 29°56' W 090°00'0 0.0
2015-Jul-03 08:27N 29°56' W 090°00'0 0.0
2015-Jul-03 07:33N 29°56' W 090°00'3 2.9
2015-Jul-03 06:33N 29°59' W 090°01'2 1.5
2015-Jul-03 05:32N 29°60' W 089°60'2 1.7
2015-Jul-03 04:31N 29°59' W 090°01'1 1.1
2015-Jul-03 03:18N 29°57' W 090°01'1 1.4
2015-Jul-03 02:28N 29°56' W 090°00'0 0.2
2015-Jul-03 01:32N 29°56' W 090°00'2 0.1
2015-Jul-02 01:22N 29°58' W 090°02'1 0.0
2015-Jul-01 06:17N 29°58' W 090°01'3 0.8
2015-Jul-01 02:23N 30°00' W 089°58'4 4.3
2015-Jul-01 01:32N 29°58' W 090°02'1 0.5
2015-Jul-01 00:29N 29°57' W 090°02'2 1.9
2015-Jun-30 23:26N 29°56' W 089°60'1 0.4
2015-Jun-30 22:16N 29°56' W 090°00'0 0.0
2015-Jun-30 21:31N 29°56' W 090°00'0 0.0
2015-Jun-30 20:33N 29°56' W 090°00'0 0.1
2015-Jun-30 19:33N 29°56' W 090°00'0 0.0
2015-Jun-30 18:27N 29°56' W 090°00'0 0.0
2015-Jun-30 17:29N 29°56' W 090°00'0 0.0
2015-Jun-30 16:32N 29°56' W 090°00'0 0.0
2015-Jun-30 15:32N 29°56' W 090°00'0 0.0
2015-Jun-30 14:33N 29°56' W 090°00'0 0.0
2015-Jun-30 13:23N 29°56' W 090°00'0 0.0
2015-Jun-29 13:30N 29°56' W 090°00'0 0.0
2015-Jun-29 11:27N 29°56' W 090°00'0 0.0
2015-Jun-29 10:32N 29°56' W 090°00'2 1.8
2015-Jun-29 09:26N 29°58' W 090°02'1 0.7
2015-Jun-29 08:32N 29°59' W 090°01'1 1.4
2015-Jun-29 07:29N 29°60' W 090°00'2 2.3
2015-Jun-29 06:31N 29°58' W 090°02'0 0.2
2015-Jun-29 05:32N 29°58' W 090°02'0 0.2
2015-Jun-29 04:26N 29°57' W 090°02'0 0.0
2015-Jun-29 03:33N 29°57' W 090°02'0 0.0
2015-Jun-29 02:32N 29°57' W 090°02'1 0.5
2015-Jun-29 01:33N 29°58' W 090°02'0 0.4
2015-Jun-29 00:33N 29°58' W 090°01'2 1.6
2015-Jun-28 23:31N 29°60' W 090°01'2 2.2
2015-Jun-28 22:29N 29°58' W 090°02'1 1.0
2015-Jun-28 21:31N 29°57' W 090°01'1 0.9
2015-Jun-28 20:27N 29°56' W 090°00'0 0.1
2015-Jun-28 19:31N 29°56' W 090°00'0 0.0
2015-Jun-28 18:31N 29°56' W 090°00'0 0.0
2015-Jun-28 17:27N 29°56' W 090°00'0 0.0
2015-Jun-28 16:25N 29°56' W 090°00'2 0.2
2015-Jun-28 04:16N 29°58' W 090°01'7 4.1
2015-Jun-28 02:29N 30°01' W 089°53'4 1.7
2015-Jun-28 00:13N 30°00' W 089°58'4 2.3
2015-Jun-27 22:26N 29°57' W 090°01'1 0.8
2015-Jun-27 20:32N 29°56' W 090°00'0 0.1
2015-Jun-27 19:32N 29°56' W 090°00'2 1.9
2015-Jun-27 18:29N 29°58' W 090°02'1 0.6
2015-Jun-27 17:31N 29°59' W 090°02'1 0.8
2015-Jun-27 16:27N 29°58' W 090°02'2 0.9
2015-Jun-27 14:23N 29°56' W 090°00'0 0.0
2015-Jun-27 13:13N 29°56' W 090°00'0 0.0
2015-Jun-27 12:07N 29°56' W 090°00'0 0.0
2015-Jun-27 11:33N 29°56' W 090°00'0 0.0
2015-Jun-27 10:32N 29°56' W 090°00'0 0.0
2015-Jun-27 09:30N 29°56' W 090°00'0 0.0
2015-Jun-27 08:30N 29°56' W 090°00'0 0.0
2015-Jun-27 07:32N 29°56' W 090°00'0 0.0
2015-Jun-27 06:31N 29°56' W 090°00'0 0.0
2015-Jun-27 05:33N 29°56' W 090°00'0 0.0
2015-Jun-27 04:33N 29°56' W 090°00'2 2.2
2015-Jun-27 03:33N 29°58' W 090°02'6 5.8
2015-Jun-27 02:31N 30°01' W 089°55'1 0.5
2015-Jun-27 01:18N 30°01' W 089°55'5 6.9
2015-Jun-27 00:33N 29°60' W 090°00'2 2.3
2015-Jun-26 23:31N 29°58' W 090°02'1 0.7
2015-Jun-26 22:33N 29°57' W 090°01'1 1.0
2015-Jun-26 21:24N 29°56' W 090°00'0 0.0
2015-Jun-26 20:27N 29°56' W 090°00'0 0.0
2015-Jun-26 19:30N 29°56' W 090°00'0 0.0
2015-Jun-25 17:31N 29°56' W 090°00'0 0.0
2015-Jun-25 16:23N 29°56' W 090°00'0 0.0
2015-Jun-25 15:32N 29°56' W 090°00'0 0.1
2015-Jun-25 14:33N 29°56' W 090°00'0 0.0
2015-Jun-25 13:32N 29°56' W 090°00'0 0.0
2015-Jun-25 12:31N 29°56' W 090°00'0 0.0
2015-Jun-25 11:32N 29°56' W 090°00'0 0.0
2015-Jun-25 10:30N 29°56' W 090°00'0 0.0
2015-Jun-25 09:33N 29°56' W 090°00'0 0.0
2015-Jun-25 08:33N 29°56' W 090°00'0 0.0
2015-Jun-25 07:30N 29°56' W 090°00'0 0.0
2015-Jun-25 06:33N 29°56' W 090°00'0 0.0
2015-Jun-25 05:30N 29°56' W 090°00'0 0.0
2015-Jun-25 04:33N 29°56' W 090°00'2 1.9
2015-Jun-25 03:30N 29°58' W 090°02'3 0.9
2015-Jun-25 00:30N 29°60' W 089°60'3 3.0
2015-Jun-24 23:32N 29°58' W 090°02'  
Track history (hours):
 
Tides and Currents Weather Stations Pressure Air Temp Water Temp Dewpoint Dewpoint Depression Visibility Wind Speed Wind Dir Waves Ship Positions

Todd G

Owner: Harbor Towing & Fleeting, Inc., Metairie, LA. More information available from US FCC via Universal Licensing System and Coast Guard Vessel Documentation Center.

Last reported at 2015-Jul-04 01:15 UTC. Time now 2015-Jul-04 06:58 UTC.
Position N 29°56' W 090°00'.

Length 16 m.

Type: Towing. MMSI: 366988470.

Date/timePositionNaut miles runAvg speedWind from/ knotsBaromVisibWave heightAir tempDewpointWater temp
2015-Jul-04 01:15N 29°56' W 090°00'0 0.0
2015-Jul-03 23:23N 29°56' W 090°00'0 0.0
2015-Jul-03 22:26N 29°56' W 090°00'2 1.8
2015-Jul-03 21:21N 29°58' W 090°02'3 3.2
2015-Jul-03 20:27N 29°60' W 089°59'1 0.7
2015-Jul-03 18:21N 30°00' W 089°58'3 2.9
2015-Jul-03 17:23N 29°60' W 090°01'7 5.5
2015-Jul-03 16:11N 30°01' W 089°53'2 3.1
2015-Jul-03 15:25N 30°00' W 089°56'5 2.6
2015-Jul-03 13:19N 29°58' W 090°02'1 1.3
2015-Jul-03 12:29N 29°57' W 090°01'1 0.9
2015-Jul-03 11:18N 29°56' W 090°00'0 0.0
2015-Jul-03 10:20N 29°56' W 090°00'0 0.0
2015-Jul-03 09:33N 29°56' W 090°00'0 0.0
2015-Jul-03 08:27N 29°56' W 090°00'0 0.0
2015-Jul-03 07:33N 29°56' W 090°00'3 2.9
2015-Jul-03 06:33N 29°59' W 090°01'2 1.5
2015-Jul-03 05:32N 29°60' W 089°60'2 1.7
2015-Jul-03 04:31N 29°59' W 090°01'1 1.1
2015-Jul-03 03:18N 29°57' W 090°01'1 1.4
2015-Jul-03 02:28N 29°56' W 090°00'0 0.2
2015-Jul-03 01:32N 29°56' W 090°00'2 0.1
2015-Jul-02 01:22N 29°58' W 090°02'1 0.0
2015-Jul-01 06:17N 29°58' W 090°01'3 0.8
2015-Jul-01 02:23N 30°00' W 089°58'4 4.3
2015-Jul-01 01:32N 29°58' W 090°02'1 0.5
2015-Jul-01 00:29N 29°57' W 090°02'2 1.9
2015-Jun-30 23:26N 29°56' W 089°60'1 0.4
2015-Jun-30 22:16N 29°56' W 090°00'0 0.0
2015-Jun-30 21:31N 29°56' W 090°00'0 0.0
2015-Jun-30 20:33N 29°56' W 090°00'0 0.1
2015-Jun-30 19:33N 29°56' W 090°00'0 0.0
2015-Jun-30 18:27N 29°56' W 090°00'0 0.0
2015-Jun-30 17:29N 29°56' W 090°00'0 0.0
2015-Jun-30 16:32N 29°56' W 090°00'0 0.0
2015-Jun-30 15:32N 29°56' W 090°00'0 0.0
2015-Jun-30 14:33N 29°56' W 090°00'0 0.0
2015-Jun-30 13:23N 29°56' W 090°00'0 0.0
2015-Jun-29 13:30N 29°56' W 090°00'0 0.0
2015-Jun-29 11:27N 29°56' W 090°00'0 0.0
2015-Jun-29 10:32N 29°56' W 090°00'2 1.8
2015-Jun-29 09:26N 29°58' W 090°02'1 0.7
2015-Jun-29 08:32N 29°59' W 090°01'1 1.4
2015-Jun-29 07:29N 29°60' W 090°00'2 2.3
2015-Jun-29 06:31N 29°58' W 090°02'0 0.2
2015-Jun-29 05:32N 29°58' W 090°02'0 0.2
2015-Jun-29 04:26N 29°57' W 090°02'0 0.0
2015-Jun-29 03:33N 29°57' W 090°02'0 0.0
2015-Jun-29 02:32N 29°57' W 090°02'1 0.5
2015-Jun-29 01:33N 29°58' W 090°02'0 0.4
2015-Jun-29 00:33N 29°58' W 090°01'2 1.6
2015-Jun-28 23:31N 29°60' W 090°01'2 2.2
2015-Jun-28 22:29N 29°58' W 090°02'1 1.0
2015-Jun-28 21:31N 29°57' W 090°01'1 0.9
2015-Jun-28 20:27N 29°56' W 090°00'0 0.1
2015-Jun-28 19:31N 29°56' W 090°00'0 0.0
2015-Jun-28 18:31N 29°56' W 090°00'0 0.0
2015-Jun-28 17:27N 29°56' W 090°00'0 0.0
2015-Jun-28 16:25N 29°56' W 090°00'2 0.2
2015-Jun-28 04:16N 29°58' W 090°01'7 4.1
2015-Jun-28 02:29N 30°01' W 089°53'4 1.7
2015-Jun-28 00:13N 30°00' W 089°58'4 2.3
2015-Jun-27 22:26N 29°57' W 090°01'1 0.8
2015-Jun-27 20:32N 29°56' W 090°00'0 0.1
2015-Jun-27 19:32N 29°56' W 090°00'2 1.9
2015-Jun-27 18:29N 29°58' W 090°02'1 0.6
2015-Jun-27 17:31N 29°59' W 090°02'1 0.8
2015-Jun-27 16:27N 29°58' W 090°02'2 0.9
2015-Jun-27 14:23N 29°56' W 090°00'0 0.0
2015-Jun-27 13:13N 29°56' W 090°00'0 0.0
2015-Jun-27 12:07N 29°56' W 090°00'0 0.0
2015-Jun-27 11:33N 29°56' W 090°00'0 0.0
2015-Jun-27 10:32N 29°56' W 090°00'0 0.0
2015-Jun-27 09:30N 29°56' W 090°00'0 0.0
2015-Jun-27 08:30N 29°56' W 090°00'0 0.0
2015-Jun-27 07:32N 29°56' W 090°00'0 0.0
2015-Jun-27 06:31N 29°56' W 090°00'0 0.0
2015-Jun-27 05:33N 29°56' W 090°00'0 0.0
2015-Jun-27 04:33N 29°56' W 090°00'2 2.2
2015-Jun-27 03:33N 29°58' W 090°02'6 5.8
2015-Jun-27 02:31N 30°01' W 089°55'1 0.5
2015-Jun-27 01:18N 30°01' W 089°55'5 6.9
2015-Jun-27 00:33N 29°60' W 090°00'2 2.3
2015-Jun-26 23:31N 29°58' W 090°02'1 0.7
2015-Jun-26 22:33N 29°57' W 090°01'1 1.0
2015-Jun-26 21:24N 29°56' W 090°00'0 0.0
2015-Jun-26 20:27N 29°56' W 090°00'0 0.0
2015-Jun-26 19:30N 29°56' W 090°00'0 0.0
2015-Jun-25 17:31N 29°56' W 090°00'0 0.0
2015-Jun-25 16:23N 29°56' W 090°00'0 0.0
2015-Jun-25 15:32N 29°56' W 090°00'0 0.1
2015-Jun-25 14:33N 29°56' W 090°00'0 0.0
2015-Jun-25 13:32N 29°56' W 090°00'0 0.0
2015-Jun-25 12:31N 29°56' W 090°00'0 0.0
2015-Jun-25 11:32N 29°56' W 090°00'0 0.0
2015-Jun-25 10:30N 29°56' W 090°00'0 0.0
2015-Jun-25 09:33N 29°56' W 090°00'0 0.0
2015-Jun-25 08:33N 29°56' W 090°00'0 0.0
2015-Jun-25 07:30N 29°56' W 090°00'0 0.0
2015-Jun-25 06:33N 29°56' W 090°00'0 0.0
2015-Jun-25 05:30N 29°56' W 090°00'0 0.0
2015-Jun-25 04:33N 29°56' W 090°00'2 1.9
2015-Jun-25 03:30N 29°58' W 090°02'3 0.9
2015-Jun-25 00:30N 29°60' W 089°60'3 3.0
2015-Jun-24 23:32N 29°58' W 090°02'  

Dump ship's entire track history